sensor_id;sensor_type;location;lat;lon;timestamp;pressure;altitude;pressure_sealevel;temperature;humidity
4767;BME280;2397;53.576;9.746;2023-04-01T00:00:57;99526.31;;;10.42;88.08
4767;BME280;2397;53.576;9.746;2023-04-01T00:03:24;99522.94;;;10.48;88.00
4767;BME280;2397;53.576;9.746;2023-04-01T00:05:57;99522.69;;;10.43;87.97
4767;BME280;2397;53.576;9.746;2023-04-01T00:08:25;99515.41;;;10.45;87.88
4767;BME280;2397;53.576;9.746;2023-04-01T00:10:52;99523.97;;;10.47;88.08
4767;BME280;2397;53.576;9.746;2023-04-01T00:13:19;99519.69;;;10.46;87.69
4767;BME280;2397;53.576;9.746;2023-04-01T00:15:47;99517.69;;;10.48;88.11
4767;BME280;2397;53.576;9.746;2023-04-01T00:18:14;99523.25;;;10.53;87.30
4767;BME280;2397;53.576;9.746;2023-04-01T00:20:46;99525.78;;;10.46;87.75
4767;BME280;2397;53.576;9.746;2023-04-01T00:23:14;99525.13;;;10.44;87.51
4767;BME280;2397;53.576;9.746;2023-04-01T00:25:41;99528.31;;;10.39;87.61
4767;BME280;2397;53.576;9.746;2023-04-01T00:28:07;99520.03;;;10.43;88.03
4767;BME280;2397;53.576;9.746;2023-04-01T00:30:35;99521.69;;;10.43;87.99
4767;BME280;2397;53.576;9.746;2023-04-01T00:33:02;99524.69;;;10.41;88.20
4767;BME280;2397;53.576;9.746;2023-04-01T00:35:29;99519.34;;;10.49;87.81
4767;BME280;2397;53.576;9.746;2023-04-01T00:37:56;99521.50;;;10.45;87.63
4767;BME280;2397;53.576;9.746;2023-04-01T00:42:52;99522.31;;;10.46;87.82
4767;BME280;2397;53.576;9.746;2023-04-01T00:45:34;99520.03;;;10.43;87.67
4767;BME280;2397;53.576;9.746;2023-04-01T00:48:05;99519.03;;;10.43;87.47
4767;BME280;2397;53.576;9.746;2023-04-01T00:50:34;99522.22;;;10.39;87.73
4767;BME280;2397;53.576;9.746;2023-04-01T00:53:02;99520.13;;;10.34;87.62
4767;BME280;2397;53.576;9.746;2023-04-01T00:55:32;99523.59;;;10.35;88.13
4767;BME280;2397;53.576;9.746;2023-04-01T00:58:02;99517.66;;;10.33;88.43
4767;BME280;2397;53.576;9.746;2023-04-01T01:00:29;99521.94;;;10.34;88.37
4767;BME280;2397;53.576;9.746;2023-04-01T01:02:57;99520.13;;;10.34;88.66
4767;BME280;2397;53.576;9.746;2023-04-01T01:05:42;99527.75;;;10.29;88.42
4767;BME280;2397;53.576;9.746;2023-04-01T01:08:31;99524.13;;;10.30;88.80
4767;BME280;2397;53.576;9.746;2023-04-01T01:11:05;99520.81;;;10.28;88.51
4767;BME280;2397;53.576;9.746;2023-04-01T01:13:43;99531.38;;;10.28;88.74
4767;BME280;2397;53.576;9.746;2023-04-01T01:16:21;99520.47;;;10.31;88.62
4767;BME280;2397;53.576;9.746;2023-04-01T01:24:41;99522.94;;;10.33;89.02
4767;BME280;2397;53.576;9.746;2023-04-01T01:27:10;99531.69;;;10.33;88.96
4767;BME280;2397;53.576;9.746;2023-04-01T01:29:55;99528.66;;;10.36;89.03
4767;BME280;2397;53.576;9.746;2023-04-01T01:32:48;99527.38;;;10.32;88.59
4767;BME280;2397;53.576;9.746;2023-04-01T01:35:31;99522.50;;;10.29;89.22
4767;BME280;2397;53.576;9.746;2023-04-01T01:38:09;99531.38;;;10.28;89.21
4767;BME280;2397;53.576;9.746;2023-04-01T01:40:41;99529.75;;;10.27;89.12
4767;BME280;2397;53.576;9.746;2023-04-01T01:43:11;99532.56;;;10.26;89.40
4767;BME280;2397;53.576;9.746;2023-04-01T01:45:43;99536.19;;;10.25;89.30
4767;BME280;2397;53.576;9.746;2023-04-01T01:48:11;99529.75;;;10.27;89.01
4767;BME280;2397;53.576;9.746;2023-04-01T01:50:39;99537.03;;;10.25;89.40
4767;BME280;2397;53.576;9.746;2023-04-01T01:53:10;99532.22;;;10.29;89.08
4767;BME280;2397;53.576;9.746;2023-04-01T01:55:40;99542.94;;;10.27;89.57
4767;BME280;2397;53.576;9.746;2023-04-01T01:58:16;99544.63;;;10.20;89.28
4767;BME280;2397;53.576;9.746;2023-04-01T02:00:48;99540.47;;;10.26;89.23
4767;BME280;2397;53.576;9.746;2023-04-01T02:03:17;99546.41;;;10.28;89.80
4767;BME280;2397;53.576;9.746;2023-04-01T02:05:44;99547.94;;;10.22;89.58
4767;BME280;2397;53.576;9.746;2023-04-01T02:08:14;99543.44;;;10.23;89.03
4767;BME280;2397;53.576;9.746;2023-04-01T02:10:49;99543.00;;;10.19;89.50
4767;BME280;2397;53.576;9.746;2023-04-01T02:13:42;99537.72;;;10.19;89.05
4767;BME280;2397;53.576;9.746;2023-04-01T02:16:14;99553.53;;;10.19;89.13
4767;BME280;2397;53.576;9.746;2023-04-01T02:18:43;99548.81;;;10.15;89.51
4767;BME280;2397;53.576;9.746;2023-04-01T02:21:12;99548.44;;;10.18;89.54
4767;BME280;2397;53.576;9.746;2023-04-01T02:23:40;99543.53;;;10.15;89.26
4767;BME280;2397;53.576;9.746;2023-04-01T02:26:07;99546.34;;;10.13;89.45
4767;BME280;2397;53.576;9.746;2023-04-01T02:28:38;99550.63;;;10.14;89.38
4767;BME280;2397;53.576;9.746;2023-04-01T02:31:05;99542.41;;;10.09;89.44
4767;BME280;2397;53.576;9.746;2023-04-01T02:33:32;99544.25;;;10.09;89.21
4767;BME280;2397;53.576;9.746;2023-04-01T02:35:59;99545.06;;;10.09;89.37
4767;BME280;2397;53.576;9.746;2023-04-01T02:38:26;99545.72;;;10.11;89.64
4767;BME280;2397;53.576;9.746;2023-04-01T02:41:00;99546.50;;;10.12;89.18
4767;BME280;2397;53.576;9.746;2023-04-01T02:43:27;99553.13;;;10.08;89.46
4767;BME280;2397;53.576;9.746;2023-04-01T02:45:55;99556.59;;;10.08;89.50
4767;BME280;2397;53.576;9.746;2023-04-01T02:48:22;99557.44;;;10.09;89.38
4767;BME280;2397;53.576;9.746;2023-04-01T02:50:48;99560.25;;;10.07;89.75
4767;BME280;2397;53.576;9.746;2023-04-01T02:53:16;99567.97;;;10.09;89.99
4767;BME280;2397;53.576;9.746;2023-04-01T02:55:42;99560.19;;;10.15;89.58
4767;BME280;2397;53.576;9.746;2023-04-01T02:58:09;99567.44;;;10.13;89.80
4767;BME280;2397;53.576;9.746;2023-04-01T03:00:36;99565.97;;;10.11;89.79
4767;BME280;2397;53.576;9.746;2023-04-01T03:03:03;99571.59;;;10.08;89.87
4767;BME280;2397;53.576;9.746;2023-04-01T03:05:30;99575.69;;;10.10;89.68
4767;BME280;2397;53.576;9.746;2023-04-01T03:07:57;99573.53;;;10.14;89.95
4767;BME280;2397;53.576;9.746;2023-04-01T03:10:23;99574.06;;;10.09;89.61
4767;BME280;2397;53.576;9.746;2023-04-01T03:12:50;99572.41;;;10.08;89.80
4767;BME280;2397;53.576;9.746;2023-04-01T03:15:17;99576.84;;;10.08;89.95
4767;BME280;2397;53.576;9.746;2023-04-01T03:17:43;99573.34;;;10.15;90.04
4767;BME280;2397;53.576;9.746;2023-04-01T03:20:11;99582.44;;;10.13;90.32
4767;BME280;2397;53.576;9.746;2023-04-01T03:22:39;99577.34;;;10.11;90.16
4767;BME280;2397;53.576;9.746;2023-04-01T03:25:09;99571.41;;;10.09;90.00
4767;BME280;2397;53.576;9.746;2023-04-01T03:27:37;99578.53;;;10.09;90.05
4767;BME280;2397;53.576;9.746;2023-04-01T03:30:06;99583.97;;;10.07;89.86
4767;BME280;2397;53.576;9.746;2023-04-01T03:32:39;99578.69;;;10.07;90.23
4767;BME280;2397;53.576;9.746;2023-04-01T03:35:06;99584.59;;;10.09;89.95
4767;BME280;2397;53.576;9.746;2023-04-01T03:37:33;99586.78;;;10.06;90.01
4767;BME280;2397;53.576;9.746;2023-04-01T03:40:00;99589.44;;;9.98;90.23
4767;BME280;2397;53.576;9.746;2023-04-01T03:42:27;99585.63;;;10.00;90.49
4767;BME280;2397;53.576;9.746;2023-04-01T03:44:53;99593.53;;;10.00;90.57
4767;BME280;2397;53.576;9.746;2023-04-01T03:47:20;99595.50;;;9.98;90.43
4767;BME280;2397;53.576;9.746;2023-04-01T03:49:46;99598.63;;;10.02;90.43
4767;BME280;2397;53.576;9.746;2023-04-01T03:52:13;99598.81;;;10.00;90.54
4767;BME280;2397;53.576;9.746;2023-04-01T03:54:39;99603.25;;;10.00;90.60
4767;BME280;2397;53.576;9.746;2023-04-01T03:57:06;99603.06;;;10.01;90.19
4767;BME280;2397;53.576;9.746;2023-04-01T03:59:33;99610.97;;;10.01;90.55
4767;BME280;2397;53.576;9.746;2023-04-01T04:02:00;99609.97;;;10.02;90.34
4767;BME280;2397;53.576;9.746;2023-04-01T04:04:27;99608.34;;;10.01;90.78
4767;BME280;2397;53.576;9.746;2023-04-01T04:06:54;99614.63;;;10.00;90.37
4767;BME280;2397;53.576;9.746;2023-04-01T04:09:22;99609.88;;;9.96;90.72
4767;BME280;2397;53.576;9.746;2023-04-01T04:11:49;99612.34;;;9.97;90.69
4767;BME280;2397;53.576;9.746;2023-04-01T04:14:16;99622.34;;;10.02;90.94
4767;BME280;2397;53.576;9.746;2023-04-01T04:16:44;99616.25;;;10.01;91.18
4767;BME280;2397;53.576;9.746;2023-04-01T04:19:11;99623.00;;;10.04;90.69
4767;BME280;2397;53.576;9.746;2023-04-01T04:21:39;99620.88;;;9.99;90.98
4767;BME280;2397;53.576;9.746;2023-04-01T04:24:06;99622.22;;;9.95;90.84
4767;BME280;2397;53.576;9.746;2023-04-01T04:26:51;99617.94;;;9.94;90.59
4767;BME280;2397;53.576;9.746;2023-04-01T04:29:18;99629.16;;;9.96;90.86
4767;BME280;2397;53.576;9.746;2023-04-01T04:31:45;99627.19;;;9.90;91.06
4767;BME280;2397;53.576;9.746;2023-04-01T04:34:12;99628.81;;;9.91;91.34
4767;BME280;2397;53.576;9.746;2023-04-01T04:36:38;99633.75;;;9.94;91.28
4767;BME280;2397;53.576;9.746;2023-04-01T04:39:05;99633.75;;;9.94;90.80
4767;BME280;2397;53.576;9.746;2023-04-01T04:41:33;99630.13;;;9.95;91.05
4767;BME280;2397;53.576;9.746;2023-04-01T04:44:03;99631.78;;;9.96;91.37
4767;BME280;2397;53.576;9.746;2023-04-01T04:46:31;99646.09;;;9.94;90.97
4767;BME280;2397;53.576;9.746;2023-04-01T04:49:08;99644.97;;;9.96;91.61
4767;BME280;2397;53.576;9.746;2023-04-01T04:51:35;99643.31;;;9.95;91.27
4767;BME280;2397;53.576;9.746;2023-04-01T04:54:03;99646.09;;;9.94;90.99
4767;BME280;2397;53.576;9.746;2023-04-01T04:56:47;99643.31;;;9.95;91.14
4767;BME280;2397;53.576;9.746;2023-04-01T04:59:14;99655.50;;;9.96;91.50
4767;BME280;2397;53.576;9.746;2023-04-01T05:01:50;99656.97;;;9.99;91.47
4767;BME280;2397;53.576;9.746;2023-04-01T05:04:17;99657.31;;;9.96;91.08
4767;BME280;2397;53.576;9.746;2023-04-01T05:06:43;99663.25;;;9.98;91.39
4767;BME280;2397;53.576;9.746;2023-04-01T05:09:11;99664.38;;;9.95;91.68
4767;BME280;2397;53.576;9.746;2023-04-01T05:11:38;99669.47;;;9.97;91.67
4767;BME280;2397;53.576;9.746;2023-04-01T05:14:05;99667.69;;;9.97;91.63
4767;BME280;2397;53.576;9.746;2023-04-01T05:16:33;99666.69;;;9.98;91.70
4767;BME280;2397;53.576;9.746;2023-04-01T05:18:59;99673.59;;;9.99;91.40
4767;BME280;2397;53.576;9.746;2023-04-01T05:21:26;99672.44;;;10.02;91.40
4767;BME280;2397;53.576;9.746;2023-04-01T05:23:54;99674.06;;;10.03;91.61
4767;BME280;2397;53.576;9.746;2023-04-01T05:26:23;99677.88;;;10.00;91.62
4767;BME280;2397;53.576;9.746;2023-04-01T05:28:49;99688.88;;;10.04;91.91
4767;BME280;2397;53.576;9.746;2023-04-01T05:31:16;99684.97;;;10.00;91.26
4767;BME280;2397;53.576;9.746;2023-04-01T05:33:45;99693.47;;;9.79;91.22
4767;BME280;2397;53.576;9.746;2023-04-01T05:36:14;99699.09;;;9.68;90.66
4767;BME280;2397;53.576;9.746;2023-04-01T05:38:41;99699.81;;;9.54;90.70
4767;BME280;2397;53.576;9.746;2023-04-01T05:41:11;99697.88;;;9.48;90.35
4767;BME280;2397;53.576;9.746;2023-04-01T05:43:42;99699.19;;;9.36;90.35
4767;BME280;2397;53.576;9.746;2023-04-01T05:46:43;99707.13;;;9.28;90.36
4767;BME280;2397;53.576;9.746;2023-04-01T05:49:16;99714.38;;;9.18;90.25
4767;BME280;2397;53.576;9.746;2023-04-01T05:51:42;99713.41;;;9.11;89.94
4767;BME280;2397;53.576;9.746;2023-04-01T05:54:09;99715.72;;;9.06;90.24
4767;BME280;2397;53.576;9.746;2023-04-01T05:56:36;99716.38;;;8.84;89.87
4767;BME280;2397;53.576;9.746;2023-04-01T05:59:03;99716.72;;;8.89;90.03
4767;BME280;2397;53.576;9.746;2023-04-01T06:01:29;99725.59;;;8.80;90.04
4767;BME280;2397;53.576;9.746;2023-04-01T06:03:56;99734.16;;;8.82;89.94
4767;BME280;2397;53.576;9.746;2023-04-01T06:06:27;99727.72;;;8.77;90.08
4767;BME280;2397;53.576;9.746;2023-04-01T06:09:14;99737.91;;;8.72;89.88
4767;BME280;2397;53.576;9.746;2023-04-01T06:15:27;99746.94;;;8.61;90.15
4767;BME280;2397;53.576;9.746;2023-04-01T06:18:11;99746.25;;;8.51;89.99
4767;BME280;2397;53.576;9.746;2023-04-01T06:26:03;99754.47;;;8.40;90.08
4767;BME280;2397;53.576;9.746;2023-04-01T06:31:50;99761.00;;;8.28;89.94
4767;BME280;2397;53.576;9.746;2023-04-01T06:34:39;99772.19;;;8.30;89.94
4767;BME280;2397;53.576;9.746;2023-04-01T06:37:24;99771.78;;;8.17;89.70
4767;BME280;2397;53.576;9.746;2023-04-01T06:42:31;99779.66;;;8.17;89.52
4767;BME280;2397;53.576;9.746;2023-04-01T06:48:33;99788.16;;;8.11;89.42
4767;BME280;2397;53.576;9.746;2023-04-01T06:52:08;99786.59;;;7.85;89.03
4767;BME280;2397;53.576;9.746;2023-04-01T06:58:22;99803.91;;;8.03;89.50
4767;BME280;2397;53.576;9.746;2023-04-01T07:00:52;99807.38;;;8.04;89.02
4767;BME280;2397;53.576;9.746;2023-04-01T07:03:29;99809.81;;;7.97;89.04
4767;BME280;2397;53.576;9.746;2023-04-01T07:06:08;99809.84;;;8.05;89.01
4767;BME280;2397;53.576;9.746;2023-04-01T07:08:41;99810.53;;;7.82;88.39
4767;BME280;2397;53.576;9.746;2023-04-01T07:11:11;99818.13;;;7.85;88.50
4767;BME280;2397;53.576;9.746;2023-04-01T07:14:04;99827.78;;;7.84;88.72
4767;BME280;2397;53.576;9.746;2023-04-01T07:16:49;99832.28;;;7.92;88.76
4767;BME280;2397;53.576;9.746;2023-04-01T07:19:27;99841.28;;;7.89;88.78
4767;BME280;2397;53.576;9.746;2023-04-01T07:22:15;99835.38;;;7.87;88.77
4767;BME280;2397;53.576;9.746;2023-04-01T07:25:11;99848.19;;;7.90;88.29
4767;BME280;2397;53.576;9.746;2023-04-01T07:27:41;99844.28;;;7.94;88.33
4767;BME280;2397;53.576;9.746;2023-04-01T07:30:16;99856.38;;;7.87;88.29
4767;BME280;2397;53.576;9.746;2023-04-01T07:33:04;99855.53;;;7.87;88.26
4767;BME280;2397;53.576;9.746;2023-04-01T07:35:43;99860.91;;;7.77;88.15
4767;BME280;2397;53.576;9.746;2023-04-01T07:41:00;99870.59;;;7.77;87.78
4767;BME280;2397;53.576;9.746;2023-04-01T07:49:15;99886.44;;;7.67;88.31
4767;BME280;2397;53.576;9.746;2023-04-01T07:54:28;99898.75;;;7.67;87.95
4767;BME280;2397;53.576;9.746;2023-04-01T07:57:24;99904.75;;;7.59;88.19
4767;BME280;2397;53.576;9.746;2023-04-01T08:00:22;99900.34;;;7.60;88.51
4767;BME280;2397;53.576;9.746;2023-04-01T08:06:28;99918.28;;;7.64;89.14
4767;BME280;2397;53.576;9.746;2023-04-01T08:09:15;99933.28;;;7.54;88.77
4767;BME280;2397;53.576;9.746;2023-04-01T08:12:40;99930.38;;;7.57;88.73
4767;BME280;2397;53.576;9.746;2023-04-01T08:16:20;99935.63;;;7.57;88.75
4767;BME280;2397;53.576;9.746;2023-04-01T08:21:43;99948.19;;;7.54;88.53
4767;BME280;2397;53.576;9.746;2023-04-01T08:24:22;99955.78;;;7.39;88.09
4767;BME280;2397;53.576;9.746;2023-04-01T08:26:59;99953.53;;;7.44;88.06
4767;BME280;2397;53.576;9.746;2023-04-01T08:29:51;99953.38;;;7.28;87.78
4767;BME280;2397;53.576;9.746;2023-04-01T08:32:27;99966.38;;;7.30;87.80
4767;BME280;2397;53.576;9.746;2023-04-01T08:35:08;99963.66;;;7.22;87.86
4767;BME280;2397;53.576;9.746;2023-04-01T08:37:39;99982.56;;;7.43;87.86
4767;BME280;2397;53.576;9.746;2023-04-01T08:40:45;99983.41;;;7.43;88.13
4767;BME280;2397;53.576;9.746;2023-04-01T08:54:34;100012.06;;;7.54;87.34
4767;BME280;2397;53.576;9.746;2023-04-01T08:57:35;100005.22;;;7.44;87.19
4767;BME280;2397;53.576;9.746;2023-04-01T09:00:32;100004.47;;;7.34;87.22
4767;BME280;2397;53.576;9.746;2023-04-01T09:03:41;100004.97;;;7.37;87.31
4767;BME280;2397;53.576;9.746;2023-04-01T09:06:24;100007.22;;;7.32;87.05
4767;BME280;2397;53.576;9.746;2023-04-01T09:09:24;100019.28;;;7.25;87.13
4767;BME280;2397;53.576;9.746;2023-04-01T09:14:59;100029.88;;;7.51;87.00
4767;BME280;2397;53.576;9.746;2023-04-01T09:17:45;100034.41;;;7.58;87.09
4767;BME280;2397;53.576;9.746;2023-04-01T09:28:07;100036.66;;;7.53;86.25
4767;BME280;2397;53.576;9.746;2023-04-01T09:34:09;100052.56;;;7.52;86.23
4767;BME280;2397;53.576;9.746;2023-04-01T09:37:18;100056.31;;;7.49;86.03
4767;BME280;2397;53.576;9.746;2023-04-01T09:43:12;100067.84;;;7.56;85.53
4767;BME280;2397;53.576;9.746;2023-04-01T09:45:55;100068.34;;;7.69;85.80
4767;BME280;2397;53.576;9.746;2023-04-01T09:51:49;100073.72;;;7.50;85.34
4767;BME280;2397;53.576;9.746;2023-04-01T09:57:35;100089.63;;;7.66;85.66
4767;BME280;2397;53.576;9.746;2023-04-01T10:00:28;100092.06;;;7.77;85.76
4767;BME280;2397;53.576;9.746;2023-04-01T10:17:07;100108.03;;;7.84;85.74
4767;BME280;2397;53.576;9.746;2023-04-01T10:19:59;100114.88;;;7.77;85.51
4767;BME280;2397;53.576;9.746;2023-04-01T10:28:01;100124.94;;;7.81;84.36
4767;BME280;2397;53.576;9.746;2023-04-01T10:33:40;100130.13;;;7.91;84.22
4767;BME280;2397;53.576;9.746;2023-04-01T10:39:19;100134.47;;;7.82;84.29
4767;BME280;2397;53.576;9.746;2023-04-01T10:45:32;100144.56;;;7.60;84.53
4767;BME280;2397;53.576;9.746;2023-04-01T10:51:04;100153.84;;;7.54;84.95
4767;BME280;2397;53.576;9.746;2023-04-01T10:56:56;100154.50;;;7.66;84.23
4767;BME280;2397;53.576;9.746;2023-04-01T11:00:16;100164.63;;;7.78;84.33
4767;BME280;2397;53.576;9.746;2023-04-01T11:03:11;100164.53;;;7.70;83.64
4767;BME280;2397;53.576;9.746;2023-04-01T11:11:58;100181.59;;;7.84;82.90
4767;BME280;2397;53.576;9.746;2023-04-01T11:18:06;100196.13;;;8.05;82.79
4767;BME280;2397;53.576;9.746;2023-04-01T11:33:14;100205.69;;;7.79;83.62
4767;BME280;2397;53.576;9.746;2023-04-01T11:38:30;100221.19;;;7.82;82.24
4767;BME280;2397;53.576;9.746;2023-04-01T11:41:30;100222.72;;;7.75;82.71
4767;BME280;2397;53.576;9.746;2023-04-01T11:44:22;100235.16;;;7.73;83.09
4767;BME280;2397;53.576;9.746;2023-04-01T11:47:21;100227.38;;;7.81;83.20
4767;BME280;2397;53.576;9.746;2023-04-01T11:50:03;100229.13;;;7.63;82.81
4767;BME280;2397;53.576;9.746;2023-04-01T11:55:26;100238.16;;;7.51;82.59
4767;BME280;2397;53.576;9.746;2023-04-01T12:11:34;100271.66;;;7.76;82.24
4767;BME280;2397;53.576;9.746;2023-04-01T12:19:48;100287.69;;;7.73;82.35
4767;BME280;2397;53.576;9.746;2023-04-01T12:22:40;100290.06;;;7.67;82.67
4767;BME280;2397;53.576;9.746;2023-04-01T12:25:46;100289.00;;;7.60;82.27
4767;BME280;2397;53.576;9.746;2023-04-01T12:36:19;100318.63;;;7.33;81.19
4767;BME280;2397;53.576;9.746;2023-04-01T12:44:31;100323.72;;;7.35;81.18
4767;BME280;2397;53.576;9.746;2023-04-01T12:47:21;100328.31;;;7.33;81.55
4767;BME280;2397;53.576;9.746;2023-04-01T12:53:12;100334.25;;;7.16;81.90
4767;BME280;2397;53.576;9.746;2023-04-01T12:55:45;100342.53;;;7.21;81.96
4767;BME280;2397;53.576;9.746;2023-04-01T13:01:19;100354.53;;;7.13;81.39
4767;BME280;2397;53.576;9.746;2023-04-01T13:07:11;100366.41;;;7.08;80.37
4767;BME280;2397;53.576;9.746;2023-04-01T13:17:44;100379.97;;;7.32;81.09
4767;BME280;2397;53.576;9.746;2023-04-01T13:20:27;100384.94;;;7.16;81.31
4767;BME280;2397;53.576;9.746;2023-04-01T13:26:35;100391.25;;;6.94;81.00
4767;BME280;2397;53.576;9.746;2023-04-01T13:29:15;100398.59;;;7.00;81.87
4767;BME280;2397;53.576;9.746;2023-04-01T13:31:48;100403.84;;;6.91;81.85
4767;BME280;2397;53.576;9.746;2023-04-01T13:39:56;100424.69;;;6.92;81.33
4767;BME280;2397;53.576;9.746;2023-04-01T13:42:31;100426.63;;;7.00;80.84
4767;BME280;2397;53.576;9.746;2023-04-01T13:45:24;100417.22;;;6.97;80.89
4767;BME280;2397;53.576;9.746;2023-04-01T13:48:27;100438.91;;;6.90;80.75
4767;BME280;2397;53.576;9.746;2023-04-01T13:56:42;100446.50;;;6.93;80.31
4767;BME280;2397;53.576;9.746;2023-04-01T14:05:12;100458.47;;;6.86;80.56
4767;BME280;2397;53.576;9.746;2023-04-01T14:08:09;100458.78;;;6.83;80.36
4767;BME280;2397;53.576;9.746;2023-04-01T14:21:41;100483.78;;;6.96;81.00
4767;BME280;2397;53.576;9.746;2023-04-01T14:24:32;100495.09;;;6.97;81.18
4767;BME280;2397;53.576;9.746;2023-04-01T14:36:18;100510.44;;;6.62;80.91
4767;BME280;2397;53.576;9.746;2023-04-01T14:41:48;100509.91;;;6.58;80.25
4767;BME280;2397;53.576;9.746;2023-04-01T14:44:45;100517.59;;;6.60;80.50
4767;BME280;2397;53.576;9.746;2023-04-01T14:47:42;100523.72;;;6.70;81.14
4767;BME280;2397;53.576;9.746;2023-04-01T14:50:16;100521.19;;;6.59;80.61
4767;BME280;2397;53.576;9.746;2023-04-01T14:52:52;100524.19;;;6.54;80.77
4767;BME280;2397;53.576;9.746;2023-04-01T14:58:18;100540.34;;;6.50;81.23
4767;BME280;2397;53.576;9.746;2023-04-01T15:00:55;100545.13;;;6.45;81.19
4767;BME280;2397;53.576;9.746;2023-04-01T15:03:39;100550.69;;;6.51;81.47
4767;BME280;2397;53.576;9.746;2023-04-01T15:06:33;100549.31;;;6.47;81.01
4767;BME280;2397;53.576;9.746;2023-04-01T15:09:29;100542.84;;;6.31;80.82
4767;BME280;2397;53.576;9.746;2023-04-01T15:22:58;100591.44;;;6.35;81.01
4767;BME280;2397;53.576;9.746;2023-04-01T15:25:36;100589.69;;;6.24;80.63
4767;BME280;2397;53.576;9.746;2023-04-01T15:37:13;100606.44;;;6.33;81.10
4767;BME280;2397;53.576;9.746;2023-04-01T15:39:51;100611.69;;;6.33;81.11
4767;BME280;2397;53.576;9.746;2023-04-01T15:45:24;100619.84;;;6.19;81.13
4767;BME280;2397;53.576;9.746;2023-04-01T15:51:05;100627.09;;;6.26;81.88
4767;BME280;2397;53.576;9.746;2023-04-01T15:54:12;100635.44;;;6.20;81.49
4767;BME280;2397;53.576;9.746;2023-04-01T15:56:51;100642.28;;;6.12;82.26
4767;BME280;2397;53.576;9.746;2023-04-01T15:59:41;100638.97;;;6.10;81.68
4767;BME280;2397;53.576;9.746;2023-04-01T16:02:31;100652.75;;;6.12;81.87
4767;BME280;2397;53.576;9.746;2023-04-01T16:05:34;100659.31;;;6.06;81.17
4767;BME280;2397;53.576;9.746;2023-04-01T16:11:12;100660.66;;;6.01;81.21
4767;BME280;2397;53.576;9.746;2023-04-01T16:13:55;100669.28;;;5.81;81.04
4767;BME280;2397;53.576;9.746;2023-04-01T16:19:53;100686.19;;;5.88;80.84
4767;BME280;2397;53.576;9.746;2023-04-01T16:22:54;100684.03;;;5.82;80.80
4767;BME280;2397;53.576;9.746;2023-04-01T16:25:41;100694.38;;;5.72;80.50
4767;BME280;2397;53.576;9.746;2023-04-01T16:28:22;100695.47;;;5.70;80.67
4767;BME280;2397;53.576;9.746;2023-04-01T16:30:58;100709.97;;;5.63;80.62
4767;BME280;2397;53.576;9.746;2023-04-01T16:33:50;100705.19;;;5.68;81.35
4767;BME280;2397;53.576;9.746;2023-04-01T16:36:58;100717.81;;;5.74;80.91
4767;BME280;2397;53.576;9.746;2023-04-01T16:42:16;100726.16;;;5.68;80.92
4767;BME280;2397;53.576;9.746;2023-04-01T16:45:01;100741.84;;;5.68;80.78
4767;BME280;2397;53.576;9.746;2023-04-01T16:47:37;100744.00;;;5.63;81.10
4767;BME280;2397;53.576;9.746;2023-04-01T16:50:11;100746.50;;;5.53;80.76
4767;BME280;2397;53.576;9.746;2023-04-01T16:52:53;100748.91;;;5.56;80.49
4767;BME280;2397;53.576;9.746;2023-04-01T16:55:46;100750.69;;;5.56;80.92
4767;BME280;2397;53.576;9.746;2023-04-01T16:58:24;100770.06;;;5.53;80.11
4767;BME280;2397;53.576;9.746;2023-04-01T17:00:59;100772.22;;;5.48;80.80
4767;BME280;2397;53.576;9.746;2023-04-01T17:03:39;100766.38;;;5.45;80.43
4767;BME280;2397;53.576;9.746;2023-04-01T17:09:24;100783.75;;;5.46;80.45
4767;BME280;2397;53.576;9.746;2023-04-01T17:14:59;100798.28;;;5.50;81.20
4767;BME280;2397;53.576;9.746;2023-04-01T17:20:14;100818.09;;;5.19;79.68
4767;BME280;2397;53.576;9.746;2023-04-01T17:22:55;100811.91;;;5.31;80.72
4767;BME280;2397;53.576;9.746;2023-04-01T17:25:49;100829.88;;;5.25;79.46
4767;BME280;2397;53.576;9.746;2023-04-01T17:34:02;100842.47;;;5.31;79.68
4767;BME280;2397;53.576;9.746;2023-04-01T17:36:47;100849.84;;;5.26;79.56
4767;BME280;2397;53.576;9.746;2023-04-01T17:42:18;100856.06;;;5.36;79.05
4767;BME280;2397;53.576;9.746;2023-04-01T17:48:02;100872.66;;;5.13;77.81
4767;BME280;2397;53.576;9.746;2023-04-01T17:50:53;100873.34;;;5.15;78.32
4767;BME280;2397;53.576;9.746;2023-04-01T17:53:28;100878.38;;;5.18;77.91
4767;BME280;2397;53.576;9.746;2023-04-01T17:58:46;100886.19;;;5.07;78.15
4767;BME280;2397;53.576;9.746;2023-04-01T18:01:35;100904.97;;;5.12;78.29
4767;BME280;2397;53.576;9.746;2023-04-01T18:06:58;100919.00;;;5.11;78.69
4767;BME280;2397;53.576;9.746;2023-04-01T18:12:48;100938.97;;;5.12;78.40
4767;BME280;2397;53.576;9.746;2023-04-01T18:21:00;100953.50;;;5.16;79.23
4767;BME280;2397;53.576;9.746;2023-04-01T18:23:41;100956.59;;;5.10;77.85
4767;BME280;2397;53.576;9.746;2023-04-01T18:26:23;100962.31;;;5.15;77.74
4767;BME280;2397;53.576;9.746;2023-04-01T18:28:56;100976.94;;;5.17;78.73
4767;BME280;2397;53.576;9.746;2023-04-01T18:31:31;100969.44;;;5.13;78.04
4767;BME280;2397;53.576;9.746;2023-04-01T18:34:15;100978.44;;;5.09;78.37
4767;BME280;2397;53.576;9.746;2023-04-01T18:36:53;100984.91;;;5.16;78.40
4767;BME280;2397;53.576;9.746;2023-04-01T18:39:35;100993.50;;;5.18;78.26
4767;BME280;2397;53.576;9.746;2023-04-01T18:42:16;100999.34;;;5.09;77.76
4767;BME280;2397;53.576;9.746;2023-04-01T18:44:50;101016.75;;;5.10;77.98
4767;BME280;2397;53.576;9.746;2023-04-01T18:47:44;101010.50;;;5.00;77.79
4767;BME280;2397;53.576;9.746;2023-04-01T18:56:02;101038.28;;;5.13;77.80
4767;BME280;2397;53.576;9.746;2023-04-01T18:58:42;101042.91;;;5.10;77.13
4767;BME280;2397;53.576;9.746;2023-04-01T19:01:31;101040.94;;;5.01;77.54
4767;BME280;2397;53.576;9.746;2023-04-01T19:06:55;101047.97;;;5.00;77.29
4767;BME280;2397;53.576;9.746;2023-04-01T19:09:29;101058.22;;;4.91;76.57
4767;BME280;2397;53.576;9.746;2023-04-01T19:14:56;101069.72;;;4.88;76.80
4767;BME280;2397;53.576;9.746;2023-04-01T19:17:43;101069.09;;;4.85;76.71
4767;BME280;2397;53.576;9.746;2023-04-01T19:20:20;101078.31;;;4.78;76.75
4767;BME280;2397;53.576;9.746;2023-04-01T19:25:58;101094.59;;;4.94;77.33
4767;BME280;2397;53.576;9.746;2023-04-01T19:28:34;101095.25;;;4.97;76.34
4767;BME280;2397;53.576;9.746;2023-04-01T19:31:34;101107.09;;;4.78;76.56
4767;BME280;2397;53.576;9.746;2023-04-01T19:37:22;101110.31;;;4.81;75.64
4767;BME280;2397;53.576;9.746;2023-04-01T19:48:30;101129.56;;;4.80;74.89
4767;BME280;2397;53.576;9.746;2023-04-01T19:51:09;101138.16;;;4.70;74.62
4767;BME280;2397;53.576;9.746;2023-04-01T19:53:52;101144.41;;;4.55;73.58
4767;BME280;2397;53.576;9.746;2023-04-01T19:56:23;101152.34;;;4.41;72.51